Time;durP1;ratioP1;P1;durP2;ratioP2;P2;SDS_P1;SDS_P2;PMS_P1;PMS_P2;Temp;Humidity;BMP_temperature;BMP_pressure;BME280_temperature;BME280_humidity;BME280_pressure;Samples;Min_cycle;Max_cycle;Signal;HPM_P1;HPM_P2
2023/06/30 07:11:20;;;;;;;5.30;1.30;;;;;;;;;;10587759;27;20396;-83
2023/06/30 07:16:35;;;;;;;5.40;1.35;;;;;;;;;;10590901;28;20034;-85
2023/06/30 07:22:00;;;;;;;3.40;1.20;;;;;;;;;;10596770;28;20096;-86
2023/06/30 07:27:17;;;;;;;3.72;1.42;;;;;;;;;;10598921;28;20035;-86
2023/06/30 07:38:00;;;;;;;6.07;1.85;;;;;;;;;;10593231;28;20024;-86
2023/06/30 07:43:02;;;;;;;5.10;2.92;;;;;;;;;;10594408;28;20055;-84
2023/06/30 07:53:55;;;;;;;4.65;2.13;;;;;;;;;;10592532;28;20024;-86
2023/06/30 07:59:27;;;;;;;7.75;5.15;;;;;;;;;;10587562;28;20053;-85
2023/06/30 08:05:00;;;;;;;9.88;7.28;;;;;;;;;;10608870;28;20481;-84
2023/06/30 08:10:22;;;;;;;7.45;5.10;;;;;;;;;;10585509;28;20032;-86
2023/06/30 08:15:50;;;;;;;6.75;3.70;;;;;;;;;;10586033;28;20020;-84
2023/06/30 08:21:18;;;;;;;7.60;4.90;;;;;;;;;;10563521;28;20055;-85
2023/06/30 08:31:59;;;;;;;6.38;4.30;;;;;;;;;;10560139;28;20027;-84
2023/06/30 08:37:05;;;;;;;5.47;3.33;;;;;;;;;;10558229;28;20054;-84
2023/06/30 08:42:10;;;;;;;5.63;2.85;;;;;;;;;;10560084;28;20023;-84
2023/06/30 08:47:12;;;;;;;8.00;4.30;;;;;;;;;;10560316;28;20206;-80
2023/06/30 08:52:19;;;;;;;7.30;4.05;;;;;;;;;;10555874;28;20047;-82
2023/06/30 08:57:21;;;;;;;6.38;3.90;;;;;;;;;;10553331;28;20028;-82
2023/06/30 09:02:23;;;;;;;4.05;2.58;;;;;;;;;;10555114;28;20500;-81
2023/06/30 09:07:31;;;;;;;3.97;2.63;;;;;;;;;;10555653;28;20024;-81
2023/06/30 09:12:32;;;;;;;5.53;2.50;;;;;;;;;;10552348;28;20063;-80
2023/06/30 09:17:33;;;;;;;5.60;3.90;;;;;;;;;;10551640;28;20122;-80
2023/06/30 09:22:34;;;;;;;4.65;2.83;;;;;;;;;;10549298;28;20023;-79
2023/06/30 09:27:36;;;;;;;3.28;1.77;;;;;;;;;;10549153;28;20031;-79
2023/06/30 09:32:37;;;;;;;2.08;0.98;;;;;;;;;;10558304;28;20047;-85
2023/06/30 09:37:42;;;;;;;3.60;1.40;;;;;;;;;;10563055;28;20070;-84
2023/06/30 09:42:46;;;;;;;4.45;1.50;;;;;;;;;;10558762;28;20020;-84
2023/06/30 09:47:59;;;;;;;4.70;1.50;;;;;;;;;;10559501;28;20036;-84
2023/06/30 09:53:01;;;;;;;2.45;1.60;;;;;;;;;;10560750;28;20020;-84
2023/06/30 09:58:05;;;;;;;2.72;1.45;;;;;;;;;;10557722;28;20036;-84
2023/06/30 10:03:08;;;;;;;3.20;1.00;;;;;;;;;;10554155;28;20094;-85
2023/06/30 10:08:10;;;;;;;6.32;4.45;;;;;;;;;;10553806;28;20060;-85
2023/06/30 10:13:12;;;;;;;2.25;1.17;;;;;;;;;;10552037;28;20062;-85
2023/06/30 10:18:15;;;;;;;2.95;1.30;;;;;;;;;;10554490;28;20023;-85
2023/06/30 10:23:21;;;;;;;5.90;1.52;;;;;;;;;;10554349;28;20035;-84
2023/06/30 10:28:43;;;;;;;2.65;1.40;;;;;;;;;;10535602;28;20393;-84
2023/06/30 10:33:44;;;;;;;4.22;2.92;;;;;;;;;;10552303;28;20028;-84
2023/06/30 10:38:47;;;;;;;3.72;1.23;;;;;;;;;;10554485;28;20031;-85
2023/06/30 10:44:07;;;;;;;3.15;1.52;;;;;;;;;;10553669;28;20016;-84
2023/06/30 10:49:08;;;;;;;1.80;1.25;;;;;;;;;;10555173;28;20069;-85
2023/06/30 10:54:11;;;;;;;3.63;1.20;;;;;;;;;;10557535;28;20044;-85
2023/06/30 10:59:20;;;;;;;2.50;1.23;;;;;;;;;;10557933;28;20063;-84
2023/06/30 11:04:24;;;;;;;2.83;1.23;;;;;;;;;;10560428;28;20031;-84
2023/06/30 11:09:29;;;;;;;3.03;1.70;;;;;;;;;;10583501;28;20039;-84
2023/06/30 11:14:32;;;;;;;3.90;1.23;;;;;;;;;;10559758;28;20028;-85
2023/06/30 11:19:36;;;;;;;3.50;1.40;;;;;;;;;;10554944;28;20088;-86
2023/06/30 11:24:45;;;;;;;2.35;1.40;;;;;;;;;;10553616;28;20028;-83
2023/06/30 11:29:59;;;;;;;2.45;1.85;;;;;;;;;;10553804;28;20058;-85
2023/06/30 11:35:07;;;;;;;3.20;1.88;;;;;;;;;;10550973;28;20466;-86
2023/06/30 11:40:10;;;;;;;4.07;2.70;;;;;;;;;;10549647;28;20093;-85
2023/06/30 11:45:17;;;;;;;3.17;1.23;;;;;;;;;;10551099;28;20115;-85
2023/06/30 11:50:19;;;;;;;3.30;2.15;;;;;;;;;;10551725;28;20046;-84
2023/06/30 11:55:22;;;;;;;4.40;3.00;;;;;;;;;;10555752;28;20024;-85
2023/06/30 12:00:29;;;;;;;3.25;2.00;;;;;;;;;;10550844;28;20028;-84
2023/06/30 12:05:30;;;;;;;3.60;2.40;;;;;;;;;;10557153;28;20032;-85
2023/06/30 12:10:36;;;;;;;3.70;1.60;;;;;;;;;;10554516;28;20051;-84
2023/06/30 12:21:26;;;;;;;4.85;1.65;;;;;;;;;;10579465;28;20041;-87
2023/06/30 12:27:06;;;;;;;3.25;2.30;;;;;;;;;;10588078;28;20028;-85
2023/06/30 12:32:35;;;;;;;5.10;3.00;;;;;;;;;;10561677;28;20099;-84
2023/06/30 12:38:04;;;;;;;3.97;2.05;;;;;;;;;;10564906;28;20028;-84
2023/06/30 12:43:05;;;;;;;2.95;1.55;;;;;;;;;;10555414;28;20051;-84
2023/06/30 12:48:06;;;;;;;3.20;1.50;;;;;;;;;;10559126;28;20073;-84
2023/06/30 12:53:08;;;;;;;2.50;1.30;;;;;;;;;;10560368;28;20016;-84
2023/06/30 12:58:09;;;;;;;3.10;1.35;;;;;;;;;;10559122;28;20020;-83
2023/06/30 13:03:22;;;;;;;2.90;1.60;;;;;;;;;;10563427;28;20044;-84
2023/06/30 13:08:46;;;;;;;3.30;1.30;;;;;;;;;;10569766;28;20040;-85
2023/06/30 13:14:00;;;;;;;2.72;1.52;;;;;;;;;;10554162;28;20036;-83
2023/06/30 13:19:02;;;;;;;2.03;1.73;;;;;;;;;;10555172;28;20032;-84
2023/06/30 13:24:04;;;;;;;4.55;2.10;;;;;;;;;;10555345;28;20028;-83
2023/06/30 13:29:05;;;;;;;3.40;1.40;;;;;;;;;;10553477;28;20092;-85
2023/06/30 13:34:09;;;;;;;4.28;1.70;;;;;;;;;;10553659;28;20040;-85
2023/06/30 13:39:10;;;;;;;3.40;1.90;;;;;;;;;;10554183;28;20028;-85
2023/06/30 13:44:13;;;;;;;3.67;2.30;;;;;;;;;;10551330;28;20036;-84
2023/06/30 13:49:14;;;;;;;3.67;2.03;;;;;;;;;;10555068;28;20028;-84
2023/06/30 14:00:18;;;;;;;4.88;3.20;;;;;;;;;;10634359;27;20504;-84
2023/06/30 14:05:42;;;;;;;2.95;1.88;;;;;;;;;;10614958;27;20380;-84
2023/06/30 14:10:43;;;;;;;4.68;2.40;;;;;;;;;;10633552;27;20484;-86
2023/06/30 14:15:48;;;;;;;2.67;1.80;;;;;;;;;;10616589;27;20031;-86
2023/06/30 14:20:49;;;;;;;4.95;1.88;;;;;;;;;;10616220;27;20429;-85
2023/06/30 14:25:50;;;;;;;3.10;1.75;;;;;;;;;;10613934;27;20049;-86
2023/06/30 14:30:51;;;;;;;4.85;2.60;;;;;;;;;;10611644;27;20031;-86
2023/06/30 14:35:52;;;;;;;3.88;2.20;;;;;;;;;;10612506;27;20023;-86
2023/06/30 14:40:53;;;;;;;4.25;2.10;;;;;;;;;;10618788;27;20101;-85
2023/06/30 14:45:54;;;;;;;3.38;2.17;;;;;;;;;;10613247;27;20368;-86
2023/06/30 14:50:55;;;;;;;3.22;1.90;;;;;;;;;;10616604;27;20476;-87
2023/06/30 14:55:57;;;;;;;2.95;1.90;;;;;;;;;;10615948;27;20464;-88
2023/06/30 15:00:58;;;;;;;2.38;1.70;;;;;;;;;;10613526;27;20403;-88
2023/06/30 15:05:59;;;;;;;4.75;3.80;;;;;;;;;;10614879;27;20031;-87
2023/06/30 15:11:01;;;;;;;3.00;2.33;;;;;;;;;;10613882;28;20122;-88
2023/06/30 15:16:02;;;;;;;3.28;2.03;;;;;;;;;;10612750;28;20148;-85
2023/06/30 15:21:05;;;;;;;6.50;4.53;;;;;;;;;;10613649;28;20034;-86
2023/06/30 15:26:08;;;;;;;4.43;3.58;;;;;;;;;;10613339;28;20038;-87
2023/06/30 15:31:10;;;;;;;3.58;2.22;;;;;;;;;;10621749;27;20029;-84
2023/06/30 15:36:11;;;;;;;2.55;1.85;;;;;;;;;;10652525;27;20031;-84
2023/06/30 15:41:13;;;;;;;4.25;2.88;;;;;;;;;;10628356;27;20026;-83
2023/06/30 15:46:14;;;;;;;3.90;2.22;;;;;;;;;;10624078;27;20023;-81
2023/06/30 15:51:15;;;;;;;5.57;1.92;;;;;;;;;;10625385;27;20095;-82
2023/06/30 15:56:21;;;;;;;4.15;2.10;;;;;;;;;;10636812;27;20015;-84
2023/06/30 16:01:22;;;;;;;2.45;1.80;;;;;;;;;;10634855;27;20031;-83
2023/06/30 16:06:30;;;;;;;3.33;2.13;;;;;;;;;;10652567;27;20027;-83
2023/06/30 16:11:31;;;;;;;2.92;1.77;;;;;;;;;;10630264;27;20074;-85
2023/06/30 16:16:32;;;;;;;3.55;1.52;;;;;;;;;;10644968;27;20118;-83
2023/06/30 16:21:33;;;;;;;3.35;2.28;;;;;;;;;;10625932;27;20031;-83
2023/06/30 16:26:39;;;;;;;3.42;1.60;;;;;;;;;;10642620;27;20486;-82
2023/06/30 16:31:41;;;;;;;4.05;2.38;;;;;;;;;;10637834;27;20045;-86
2023/06/30 16:36:43;;;;;;;2.72;1.70;;;;;;;;;;10636710;27;20023;-85
2023/06/30 16:41:44;;;;;;;5.00;2.03;;;;;;;;;;10637487;27;20074;-84
2023/06/30 16:46:45;;;;;;;2.83;1.83;;;;;;;;;;10641294;27;20023;-83
2023/06/30 16:51:46;;;;;;;5.00;2.38;;;;;;;;;;10627118;27;20070;-84
2023/06/30 16:56:47;;;;;;;5.50;2.00;;;;;;;;;;10627220;27;20015;-84
2023/06/30 17:01:48;;;;;;;3.05;2.30;;;;;;;;;;10625064;27;20023;-84
2023/06/30 17:06:49;;;;;;;6.35;2.45;;;;;;;;;;10643692;27;20019;-84
2023/06/30 17:11:50;;;;;;;2.88;2.20;;;;;;;;;;10625896;27;20530;-84
2023/06/30 17:16:51;;;;;;;3.58;2.20;;;;;;;;;;10628044;27;20110;-84
2023/06/30 17:21:52;;;;;;;4.07;2.17;;;;;;;;;;10652590;27;20007;-83
2023/06/30 17:26:54;;;;;;;4.93;1.90;;;;;;;;;;10633891;27;20057;-83
2023/06/30 17:31:55;;;;;;;4.43;2.40;;;;;;;;;;10623734;27;20072;-84
2023/06/30 17:37:06;;;;;;;4.30;2.42;;;;;;;;;;10640257;27;20444;-84
2023/06/30 17:42:07;;;;;;;3.05;2.00;;;;;;;;;;10621555;27;20030;-84
2023/06/30 17:47:08;;;;;;;5.95;2.38;;;;;;;;;;10638826;27;20062;-84
2023/06/30 17:52:15;;;;;;;5.00;2.00;;;;;;;;;;10621080;27;20411;-84
2023/06/30 17:57:19;;;;;;;3.95;2.15;;;;;;;;;;10621144;27;20038;-85
2023/06/30 18:02:20;;;;;;;4.05;2.00;;;;;;;;;;10619418;27;20511;-84
2023/06/30 18:07:25;;;;;;;3.40;2.25;;;;;;;;;;10618121;27;20047;-84
